createdAt,value
2024-02-29T00:00:32.000Z,20.4
2024-02-29T00:05:26.000Z,19.3
2024-02-29T00:10:20.000Z,20.5
2024-02-29T00:15:14.000Z,23.5
2024-02-29T00:20:08.000Z,24.8
2024-02-29T00:25:02.000Z,24.6
2024-02-29T00:29:56.000Z,29.3
2024-02-29T00:34:51.000Z,23.9
2024-02-29T00:39:45.000Z,26.4
2024-02-29T00:44:39.000Z,24
2024-02-29T00:49:34.000Z,22.2
2024-02-29T00:54:28.000Z,21.6
2024-02-29T00:59:22.000Z,22.1
2024-02-29T01:04:15.000Z,19.5
2024-02-29T01:09:09.000Z,19.5
2024-02-29T01:14:03.000Z,21.5
2024-02-29T01:18:55.000Z,21.5
2024-02-29T01:23:49.000Z,24.5
2024-02-29T01:28:43.000Z,24.7
2024-02-29T01:33:37.000Z,23.5
2024-02-29T01:38:30.000Z,24
2024-02-29T01:43:25.000Z,21.3
2024-02-29T01:48:19.000Z,21.3
2024-02-29T01:53:13.000Z,20.9
2024-02-29T01:58:07.000Z,20.3
2024-02-29T02:03:01.000Z,21
2024-02-29T02:07:55.000Z,22.2
2024-02-29T02:12:49.000Z,17.7
2024-02-29T02:17:44.000Z,22.8
2024-02-29T02:22:38.000Z,21.7
2024-02-29T02:27:32.000Z,22.1
2024-02-29T02:32:26.000Z,21.7
2024-02-29T02:37:20.000Z,20.3
2024-02-29T02:42:14.000Z,22.2
2024-02-29T02:47:08.000Z,20.6
2024-02-29T02:52:02.000Z,19
2024-02-29T02:56:56.000Z,17.9
2024-02-29T03:01:51.000Z,16.3
2024-02-29T03:06:45.000Z,19.8
2024-02-29T03:11:38.000Z,17.8
2024-02-29T03:16:33.000Z,20.4
2024-02-29T03:21:27.000Z,16.7
2024-02-29T03:26:21.000Z,20.6
2024-02-29T03:31:15.000Z,21.8
2024-02-29T03:36:09.000Z,17.4
2024-02-29T03:41:03.000Z,20
2024-02-29T03:45:57.000Z,20.9
2024-02-29T03:50:50.000Z,17.7
2024-02-29T03:55:44.000Z,18.8
2024-02-29T04:00:37.000Z,17.2
2024-02-29T04:05:30.000Z,16.2
2024-02-29T04:10:23.000Z,17.8
2024-02-29T04:15:17.000Z,15.8
2024-02-29T04:20:11.000Z,20.1
2024-02-29T04:25:06.000Z,20.1
2024-02-29T04:29:58.000Z,20.7
2024-02-29T04:34:52.000Z,24.1
2024-02-29T04:39:46.000Z,20
2024-02-29T04:44:40.000Z,17.9
2024-02-29T04:49:34.000Z,23.6
2024-02-29T04:54:28.000Z,23.4
2024-02-29T04:59:23.000Z,21.3
2024-02-29T05:04:16.000Z,24.2
2024-02-29T05:09:10.000Z,25
2024-02-29T05:14:04.000Z,30
2024-02-29T05:18:56.000Z,32.9
2024-02-29T05:23:51.000Z,29.3
2024-02-29T05:28:45.000Z,34.4
2024-02-29T05:33:39.000Z,32.6
2024-02-29T05:38:33.000Z,42.4
2024-02-29T05:43:27.000Z,41.1
2024-02-29T05:48:21.000Z,35.6
2024-02-29T05:53:14.000Z,34.5
2024-02-29T05:58:05.000Z,39.6
2024-02-29T06:02:59.000Z,31
2024-02-29T06:07:53.000Z,36.6
2024-02-29T06:12:47.000Z,40.6
2024-02-29T06:17:43.000Z,41.4
2024-02-29T06:22:34.000Z,39.1
2024-02-29T06:27:28.000Z,46.5
2024-02-29T06:32:25.000Z,41.6
2024-02-29T06:37:17.000Z,44.3
2024-02-29T06:42:11.000Z,39.8
2024-02-29T06:47:05.000Z,40.4
2024-02-29T06:51:59.000Z,40.9
2024-02-29T06:56:53.000Z,34.4
2024-02-29T07:01:47.000Z,40.1
2024-02-29T07:06:43.000Z,36.3
2024-02-29T07:11:34.000Z,39.1
2024-02-29T07:16:27.000Z,38.4
2024-02-29T07:21:21.000Z,37.4
2024-02-29T07:26:15.000Z,34.2
2024-02-29T07:31:10.000Z,35.3
2024-02-29T07:36:02.000Z,39.8
2024-02-29T07:40:54.000Z,35.2
2024-02-29T07:45:51.000Z,40.5
2024-02-29T07:50:45.000Z,50.2
2024-02-29T07:55:37.000Z,53.4
2024-02-29T08:00:30.000Z,52.8
2024-02-29T08:05:25.000Z,49
2024-02-29T08:10:18.000Z,46.4
2024-02-29T08:15:09.000Z,43.6
2024-02-29T08:20:03.000Z,39.3
2024-02-29T08:24:57.000Z,38.3
2024-02-29T08:29:51.000Z,35.7
2024-02-29T08:34:45.000Z,34.8
2024-02-29T08:39:39.000Z,31.6
2024-02-29T08:44:33.000Z,30.2
2024-02-29T08:49:27.000Z,32.6
2024-02-29T08:54:21.000Z,32.6
2024-02-29T08:59:15.000Z,27.8
2024-02-29T09:04:09.000Z,28.9
2024-02-29T09:09:03.000Z,25.6
2024-02-29T09:13:59.000Z,23.5
2024-02-29T09:18:54.000Z,20.8
2024-02-29T09:23:50.000Z,18.4
2024-02-29T09:28:48.000Z,16.1
2024-02-29T09:33:41.000Z,15.3
2024-02-29T09:38:35.000Z,13.8
2024-02-29T09:43:30.000Z,11.9
2024-02-29T09:48:25.000Z,13.2
2024-02-29T09:53:19.000Z,9.6
2024-02-29T09:58:13.000Z,11.2
2024-02-29T10:03:07.000Z,9.5
2024-02-29T10:08:00.000Z,15.4
2024-02-29T10:12:54.000Z,11.7
2024-02-29T10:17:49.000Z,13.1
2024-02-29T10:22:43.000Z,7.8
2024-02-29T10:27:38.000Z,10.2
2024-02-29T10:32:32.000Z,6.7
2024-02-29T10:37:26.000Z,5.9
2024-02-29T10:42:17.000Z,8.8
2024-02-29T10:47:11.000Z,6.4
2024-02-29T10:52:05.000Z,6.7
2024-02-29T10:57:00.000Z,6.2
2024-02-29T11:01:56.000Z,6
2024-02-29T11:06:49.000Z,4.6
2024-02-29T11:11:43.000Z,4.7
2024-02-29T11:16:38.000Z,6.3
2024-02-29T11:21:32.000Z,5.4
2024-02-29T11:26:27.000Z,4.6
2024-02-29T11:31:22.000Z,3.2
2024-02-29T11:36:16.000Z,4.8
2024-02-29T11:41:09.000Z,4.1
2024-02-29T11:46:02.000Z,4.7
2024-02-29T11:50:56.000Z,4.1
2024-02-29T11:55:51.000Z,3.9
2024-02-29T12:00:44.000Z,4.2
2024-02-29T12:05:39.000Z,4
2024-02-29T12:10:31.000Z,4
2024-02-29T12:15:25.000Z,3.9
2024-02-29T12:20:19.000Z,4.2
2024-02-29T12:25:16.000Z,3.4
2024-02-29T12:30:06.000Z,3.8
2024-02-29T12:35:01.000Z,3.3
2024-02-29T12:39:55.000Z,3.7
2024-02-29T12:44:48.000Z,4.3
2024-02-29T12:49:45.000Z,3.8
2024-02-29T12:54:36.000Z,3.9
2024-02-29T12:59:29.000Z,3.2
2024-02-29T13:04:25.000Z,3.8
2024-02-29T13:09:17.000Z,3.6
2024-02-29T13:14:11.000Z,3
2024-02-29T13:19:05.000Z,3.4
2024-02-29T13:23:58.000Z,3.4
2024-02-29T13:28:54.000Z,3.2
2024-02-29T13:33:47.000Z,4.2
2024-02-29T13:38:43.000Z,2.4
2024-02-29T13:43:38.000Z,2.7
2024-02-29T13:48:30.000Z,4.2
2024-02-29T13:53:25.000Z,4.2
2024-02-29T13:58:20.000Z,3.8
2024-02-29T14:03:13.000Z,3.1
2024-02-29T14:08:08.000Z,3.4
2024-02-29T14:13:02.000Z,3.5
2024-02-29T14:17:56.000Z,3.5
2024-02-29T14:22:50.000Z,3.3
2024-02-29T14:27:42.000Z,3.9
2024-02-29T14:32:36.000Z,5.6
2024-02-29T14:37:30.000Z,4.5
2024-02-29T14:42:26.000Z,3.5
2024-02-29T14:47:19.000Z,3.7
2024-02-29T14:52:12.000Z,3.7
2024-02-29T14:57:06.000Z,3.9
2024-02-29T15:02:01.000Z,5.1
2024-02-29T15:06:55.000Z,4.9
2024-02-29T15:11:47.000Z,6.6
2024-02-29T15:16:40.000Z,3.5
2024-02-29T15:21:34.000Z,3.8
2024-02-29T15:26:27.000Z,4.7
2024-02-29T15:31:21.000Z,3.7
2024-02-29T15:36:14.000Z,5.3
2024-02-29T15:41:08.000Z,6
2024-02-29T15:46:03.000Z,6.6
2024-02-29T15:50:55.000Z,4.2
2024-02-29T15:55:49.000Z,6
2024-02-29T16:00:43.000Z,4.6
2024-02-29T16:05:37.000Z,6.8
2024-02-29T16:10:30.000Z,8.7
2024-02-29T16:15:24.000Z,5.4
2024-02-29T16:20:20.000Z,5
2024-02-29T16:25:13.000Z,5.2
2024-02-29T16:30:07.000Z,10
2024-02-29T16:34:58.000Z,6.2
2024-02-29T16:39:52.000Z,7.3
2024-02-29T16:44:46.000Z,7.7
2024-02-29T16:49:37.000Z,11.1
2024-02-29T16:54:29.000Z,13.9
2024-02-29T16:59:24.000Z,8
2024-02-29T17:04:16.000Z,8.3
2024-02-29T17:09:10.000Z,8.3
2024-02-29T17:14:03.000Z,10.4
2024-02-29T17:18:57.000Z,11.5
2024-02-29T17:23:53.000Z,16
2024-02-29T17:28:44.000Z,14.3
2024-02-29T17:33:38.000Z,14.3
2024-02-29T17:38:32.000Z,25.1
2024-02-29T17:43:26.000Z,16.8
2024-02-29T17:48:20.000Z,16.4
2024-02-29T17:53:13.000Z,20.5
2024-02-29T17:58:07.000Z,24.3
2024-02-29T18:03:01.000Z,26.8
2024-02-29T18:07:57.000Z,25.2
2024-02-29T18:12:48.000Z,26.7
2024-02-29T18:17:42.000Z,27.1
2024-02-29T18:22:38.000Z,25.7
2024-02-29T18:27:30.000Z,26.5
2024-02-29T18:32:24.000Z,29.2
2024-02-29T18:37:21.000Z,29.5
2024-02-29T18:42:11.000Z,29.1
2024-02-29T18:47:04.000Z,32.4
2024-02-29T18:51:58.000Z,31.5
2024-02-29T18:56:52.000Z,34.6
2024-02-29T19:01:46.000Z,38.3
2024-02-29T19:06:41.000Z,35.1
2024-02-29T19:11:34.000Z,35.5
2024-02-29T19:16:28.000Z,36.5
2024-02-29T19:21:25.000Z,38.7
2024-02-29T19:26:15.000Z,39.1
2024-02-29T19:31:09.000Z,38.9
2024-02-29T19:36:04.000Z,36.6
2024-02-29T19:40:56.000Z,38
2024-02-29T19:45:51.000Z,41.1
2024-02-29T19:50:43.000Z,40.1
2024-02-29T19:55:38.000Z,36.9
2024-02-29T20:00:31.000Z,39.3
2024-02-29T20:05:27.000Z,37
2024-02-29T20:10:22.000Z,37.3
2024-02-29T20:15:14.000Z,37.6
2024-02-29T20:20:08.000Z,38.9
2024-02-29T20:25:02.000Z,36
2024-02-29T20:29:55.000Z,37.2
2024-02-29T20:34:48.000Z,37.6
2024-02-29T20:39:44.000Z,40.6
2024-02-29T20:44:37.000Z,36.5
2024-02-29T20:49:33.000Z,41.1
2024-02-29T20:54:25.000Z,38
2024-02-29T20:59:16.000Z,39.1
2024-02-29T21:04:09.000Z,37
2024-02-29T21:09:04.000Z,41.2
2024-02-29T21:13:57.000Z,38.8
2024-02-29T21:18:51.000Z,39.1
2024-02-29T21:23:48.000Z,39
2024-02-29T21:28:41.000Z,38.3
2024-02-29T21:33:35.000Z,39.5
2024-02-29T21:38:28.000Z,35.1
2024-02-29T21:43:25.000Z,39.3
2024-02-29T21:48:16.000Z,35.5
2024-02-29T21:53:08.000Z,34.4
2024-02-29T21:58:02.000Z,34.5
2024-02-29T22:02:56.000Z,45.2
2024-02-29T22:07:50.000Z,48.4
2024-02-29T22:12:44.000Z,49.4
2024-02-29T22:17:35.000Z,38.7
2024-02-29T22:22:30.000Z,45.1
2024-02-29T22:27:23.000Z,47
2024-02-29T22:32:17.000Z,44
2024-02-29T22:37:10.000Z,40.8
2024-02-29T22:42:04.000Z,38.5
2024-02-29T22:46:59.000Z,40.9
2024-02-29T22:51:53.000Z,39.6
2024-02-29T22:56:46.000Z,39.7
2024-02-29T23:01:41.000Z,33.1
2024-02-29T23:06:35.000Z,40.5
2024-02-29T23:11:29.000Z,41.2
2024-02-29T23:16:22.000Z,41.5
2024-02-29T23:21:16.000Z,36.2
2024-02-29T23:26:10.000Z,37.6
2024-02-29T23:31:04.000Z,34.2
2024-02-29T23:35:58.000Z,33.9
2024-02-29T23:40:52.000Z,34.2
2024-02-29T23:45:46.000Z,32.5
2024-02-29T23:50:40.000Z,29
2024-02-29T23:55:34.000Z,32.5
